SWA2899 KSLC-KMDW
Flight info
| Callsign | SWA2899 |
|---|---|
| Flight time | 2h 33m |
| Altitude | 35000 |
| Route | RUGGD3 OCS KD69W CHUWY OBH JALAP ENDEE8 |
| Aircraft | B738/M-SDE2E3FGHIRWXY/LB1 |
Departure
| Time | 2026-05-03 20:46 |
|---|---|
| Airport | Salt Lake City International Airport (KSLC) |
Arrival
| Time | 2026-05-03 23:19 |
|---|---|
| Airport | Chicago Midway International Airport (KMDW) |
| Time | Latitude | Longitude | Altitude | Speed | Heading |
|---|---|---|---|---|---|
| 2026-05-03 20:15 | 40.78944 | -111.98832 | 4230 ft | 0 kts | 175° |
| 2026-05-03 20:33 | 40.78946 | -111.98832 | 4230 ft | 2 kts | 175° |
| 2026-05-03 20:34 | 40.78971 | -111.98835 | 4230 ft | 4 kts | 175° |
| 2026-05-03 20:34 | 40.78997 | -111.98834 | 4230 ft | 4 kts | 197° |
| 2026-05-03 20:34 | 40.79019 | -111.98818 | 4230 ft | 4 kts | 238° |
| 2026-05-03 20:34 | 40.79024 | -111.98802 | 4230 ft | 0 kts | 265° |
| 2026-05-03 20:37 | 40.79024 | -111.98803 | 4230 ft | 1 kts | 265° |
| 2026-05-03 20:37 | 40.79022 | -111.98825 | 4230 ft | 4 kts | 264° |
| 2026-05-03 20:37 | 40.79018 | -111.98888 | 4230 ft | 9 kts | 265° |
| 2026-05-03 20:37 | 40.79058 | -111.98950 | 4230 ft | 11 kts | 356° |
| 2026-05-03 20:38 | 40.79121 | -111.98983 | 4229 ft | 10 kts | 295° |
| 2026-05-03 20:38 | 40.79120 | -111.99075 | 4230 ft | 10 kts | 265° |
| 2026-05-03 20:38 | 40.79115 | -111.99164 | 4230 ft | 10 kts | 265° |
| 2026-05-03 20:38 | 40.79109 | -111.99252 | 4230 ft | 9 kts | 264° |
| 2026-05-03 20:39 | 40.79102 | -111.99337 | 4230 ft | 9 kts | 264° |
| 2026-05-03 20:39 | 40.79097 | -111.99419 | 4230 ft | 9 kts | 265° |
| 2026-05-03 20:39 | 40.79102 | -111.99498 | 4229 ft | 9 kts | 308° |
| 2026-05-03 20:39 | 40.79157 | -111.99523 | 4230 ft | 9 kts | 355° |
| 2026-05-03 20:40 | 40.79217 | -111.99530 | 4230 ft | 9 kts | 355° |
| 2026-05-03 20:40 | 40.79291 | -111.99539 | 4230 ft | 12 kts | 355° |
| 2026-05-03 20:40 | 40.79383 | -111.99550 | 4230 ft | 14 kts | 354° |
| 2026-05-03 20:40 | 40.79475 | -111.99561 | 4230 ft | 13 kts | 355° |
| 2026-05-03 20:41 | 40.79565 | -111.99571 | 4229 ft | 13 kts | 355° |
| 2026-05-03 20:41 | 40.79657 | -111.99581 | 4230 ft | 14 kts | 355° |
| 2026-05-03 20:41 | 40.79755 | -111.99593 | 4230 ft | 14 kts | 355° |
| 2026-05-03 20:41 | 40.79858 | -111.99605 | 4230 ft | 16 kts | 355° |
| 2026-05-03 20:42 | 40.79975 | -111.99619 | 4230 ft | 18 kts | 355° |
| 2026-05-03 20:42 | 40.80110 | -111.99634 | 4229 ft | 21 kts | 355° |
| 2026-05-03 20:42 | 40.80262 | -111.99652 | 4230 ft | 23 kts | 355° |
| 2026-05-03 20:42 | 40.80419 | -111.99670 | 4230 ft | 23 kts | 355° |
| 2026-05-03 20:43 | 40.80576 | -111.99689 | 4230 ft | 22 kts | 355° |
| 2026-05-03 20:43 | 40.80723 | -111.99706 | 4230 ft | 16 kts | 355° |
| 2026-05-03 20:43 | 40.80771 | -111.99780 | 4230 ft | 4 kts | 265° |
| 2026-05-03 20:43 | 40.80770 | -111.99788 | 4230 ft | 0 kts | 265° |
| 2026-05-03 20:44 | 40.80770 | -111.99793 | 4230 ft | 3 kts | 265° |
| 2026-05-03 20:44 | 40.80767 | -111.99850 | 4229 ft | 8 kts | 265° |
| 2026-05-03 20:44 | 40.80739 | -111.99912 | 4230 ft | 8 kts | 213° |
| 2026-05-03 20:44 | 40.80682 | -111.99923 | 4230 ft | 8 kts | 175° |
| 2026-05-03 20:45 | 40.80625 | -111.99916 | 4230 ft | 8 kts | 175° |
| 2026-05-03 20:45 | 40.80567 | -111.99909 | 4230 ft | 10 kts | 175° |
| 2026-05-03 20:45 | 40.80339 | -111.99882 | 4232 ft | 65 kts | 175° |
| 2026-05-03 20:45 | 40.79664 | -111.99802 | 4228 ft | 128 kts | 175° |
| 2026-05-03 20:46 | 40.78591 | -111.99674 | 4236 ft | 180 kts | 174° |
| 2026-05-03 20:46 | 40.77250 | -111.99514 | 4627 ft | 200 kts | 175° |
| 2026-05-03 20:46 | 40.75869 | -111.99201 | 5377 ft | 202 kts | 155° |
| 2026-05-03 20:46 | 40.75110 | -111.98462 | 5778 ft | 213 kts | 128° |
| 2026-05-03 20:47 | 40.74538 | -111.96631 | 6364 ft | 223 kts | 100° |
| 2026-05-03 20:47 | 40.74989 | -111.93939 | 6886 ft | 246 kts | 51° |
| 2026-05-03 20:47 | 40.76388 | -111.92541 | 7173 ft | 263 kts | 19° |
| 2026-05-03 20:47 | 40.78220 | -111.92205 | 7632 ft | 268 kts | 351° |
| 2026-05-03 20:48 | 40.79424 | -111.92504 | 8189 ft | 264 kts | 343° |
| 2026-05-03 20:48 | 40.81204 | -111.93168 | 8884 ft | 268 kts | 341° |
| 2026-05-03 20:48 | 40.83020 | -111.93867 | 9544 ft | 274 kts | 341° |
| 2026-05-03 20:48 | 40.84852 | -111.94555 | 10299 ft | 274 kts | 342° |
| 2026-05-03 20:49 | 40.86723 | -111.95245 | 10704 ft | 289 kts | 341° |
| 2026-05-03 20:49 | 40.88710 | -111.95967 | 11042 ft | 304 kts | 343° |
| 2026-05-03 20:49 | 40.90802 | -111.96715 | 11375 ft | 319 kts | 342° |
| 2026-05-03 20:49 | 40.93002 | -111.97495 | 11707 ft | 334 kts | 344° |
| 2026-05-03 20:50 | 40.95296 | -111.98306 | 12041 ft | 349 kts | 344° |
| 2026-05-03 20:50 | 40.97683 | -111.99145 | 12417 ft | 362 kts | 344° |
| 2026-05-03 20:50 | 41.00176 | -111.99938 | 12762 ft | 376 kts | 352° |
| 2026-05-03 20:50 | 41.02733 | -111.99755 | 13106 ft | 389 kts | 15° |
| 2026-05-03 20:51 | 41.05177 | -111.98198 | 13684 ft | 394 kts | 38° |
| 2026-05-03 20:51 | 41.07040 | -111.95544 | 14288 ft | 396 kts | 59° |
| 2026-05-03 20:51 | 41.08272 | -111.92258 | 14832 ft | 401 kts | 67° |
| 2026-05-03 20:51 | 41.09399 | -111.88858 | 15467 ft | 402 kts | 67° |
| 2026-05-03 20:52 | 41.10535 | -111.85449 | 16013 ft | 408 kts | 66° |
| 2026-05-03 20:52 | 41.11715 | -111.82027 | 16609 ft | 409 kts | 66° |
| 2026-05-03 20:52 | 41.12677 | -111.78531 | 17136 ft | 412 kts | 78° |
| 2026-05-03 20:52 | 41.12885 | -111.74729 | 17645 ft | 416 kts | 95° |
| 2026-05-03 20:53 | 41.12312 | -111.70970 | 18194 ft | 418 kts | 109° |
| 2026-05-03 20:53 | 41.11383 | -111.67324 | 18793 ft | 417 kts | 109° |
| 2026-05-03 20:53 | 41.10441 | -111.63664 | 19238 ft | 422 kts | 109° |
| 2026-05-03 20:53 | 41.09509 | -111.59978 | 19794 ft | 422 kts | 109° |
| 2026-05-03 20:54 | 41.08587 | -111.56260 | 20200 ft | 427 kts | 109° |
| 2026-05-03 20:54 | 41.06747 | -111.48717 | 21125 ft | 433 kts | 109° |
| 2026-05-03 20:54 | 41.05817 | -111.44895 | 21478 ft | 438 kts | 107° |
| 2026-05-03 20:55 | 41.05145 | -111.40952 | 21948 ft | 441 kts | 98° |
| 2026-05-03 20:55 | 41.04964 | -111.36891 | 22461 ft | 443 kts | 88° |
| 2026-05-03 20:55 | 41.05252 | -111.32821 | 22902 ft | 445 kts | 83° |
| 2026-05-03 20:55 | 41.05652 | -111.28752 | 23518 ft | 444 kts | 82° |
| 2026-05-03 20:56 | 41.06053 | -111.24678 | 23889 ft | 448 kts | 83° |
| 2026-05-03 20:56 | 41.06438 | -111.20563 | 24251 ft | 450 kts | 83° |
| 2026-05-03 20:56 | 41.06805 | -111.16428 | 24566 ft | 454 kts | 83° |
| 2026-05-03 20:56 | 41.07164 | -111.12252 | 24899 ft | 457 kts | 83° |
| 2026-05-03 20:57 | 41.07523 | -111.08046 | 25211 ft | 460 kts | 83° |
| 2026-05-03 20:57 | 41.08068 | -111.03901 | 25489 ft | 463 kts | 74° |
| 2026-05-03 20:57 | 41.09059 | -110.99883 | 25763 ft | 467 kts | 70° |
| 2026-05-03 20:57 | 41.10155 | -110.95896 | 26020 ft | 470 kts | 69° |
| 2026-05-03 20:58 | 41.11283 | -110.91806 | 26297 ft | 473 kts | 69° |
| 2026-05-03 20:58 | 41.12393 | -110.87703 | 26646 ft | 474 kts | 70° |
| 2026-05-03 20:58 | 41.13491 | -110.83558 | 26916 ft | 476 kts | 70° |
| 2026-05-03 20:58 | 41.14580 | -110.79393 | 27167 ft | 479 kts | 70° |
| 2026-05-03 20:59 | 41.15674 | -110.75194 | 27400 ft | 482 kts | 70° |
| 2026-05-03 20:59 | 41.16769 | -110.70977 | 27672 ft | 484 kts | 70° |
| 2026-05-03 20:59 | 41.17862 | -110.66747 | 27924 ft | 486 kts | 70° |
| 2026-05-03 20:59 | 41.18943 | -110.62548 | 28196 ft | 487 kts | 70° |
| 2026-05-03 21:00 | 41.20036 | -110.58290 | 28632 ft | 487 kts | 70° |
| 2026-05-03 21:00 | 41.20771 | -110.55421 | 28924 ft | 486 kts | 70° |
| 2026-05-03 21:00 | 41.22215 | -110.49781 | 29498 ft | 484 kts | 70° |
| 2026-05-03 21:00 | 41.23295 | -110.45552 | 29887 ft | 484 kts | 70° |
| 2026-05-03 21:01 | 41.24376 | -110.41316 | 30246 ft | 483 kts | 70° |
| 2026-05-03 21:01 | 41.25454 | -110.37088 | 30561 ft | 483 kts | 70° |
| 2026-05-03 21:01 | 41.26529 | -110.32860 | 30869 ft | 482 kts | 70° |
| 2026-05-03 21:01 | 41.27587 | -110.28695 | 31153 ft | 482 kts | 70° |
| 2026-05-03 21:02 | 41.28659 | -110.24468 | 31440 ft | 482 kts | 70° |
| 2026-05-03 21:02 | 41.29726 | -110.20248 | 31720 ft | 481 kts | 70° |
| 2026-05-03 21:02 | 41.30791 | -110.16034 | 31993 ft | 481 kts | 70° |
| 2026-05-03 21:02 | 41.31853 | -110.11819 | 32268 ft | 481 kts | 70° |
| 2026-05-03 21:03 | 41.32915 | -110.07603 | 32475 ft | 481 kts | 70° |
| 2026-05-03 21:03 | 41.33978 | -110.03373 | 32724 ft | 481 kts | 70° |
| 2026-05-03 21:03 | 41.35003 | -109.99282 | 33000 ft | 480 kts | 70° |
| 2026-05-03 21:03 | 41.36058 | -109.95069 | 33266 ft | 479 kts | 70° |
| 2026-05-03 21:04 | 41.37111 | -109.90854 | 33507 ft | 480 kts | 70° |
| 2026-05-03 21:04 | 41.38163 | -109.86638 | 33755 ft | 480 kts | 70° |
| 2026-05-03 21:04 | 41.39213 | -109.82422 | 34017 ft | 479 kts | 71° |
| 2026-05-03 21:04 | 41.40260 | -109.78209 | 34217 ft | 479 kts | 70° |
| 2026-05-03 21:05 | 41.41310 | -109.73978 | 34348 ft | 481 kts | 71° |
| 2026-05-03 21:05 | 41.42347 | -109.69792 | 34531 ft | 482 kts | 71° |
| 2026-05-03 21:05 | 41.43391 | -109.65570 | 34769 ft | 481 kts | 71° |
| 2026-05-03 21:05 | 41.44436 | -109.61336 | 34930 ft | 482 kts | 71° |
| 2026-05-03 21:06 | 41.46535 | -109.52808 | 34915 ft | 483 kts | 71° |
| 2026-05-03 21:06 | 41.48616 | -109.44320 | 34946 ft | 479 kts | 71° |
| 2026-05-03 21:07 | 41.50676 | -109.35886 | 34997 ft | 477 kts | 71° |
| 2026-05-03 21:07 | 41.52723 | -109.27480 | 35033 ft | 476 kts | 71° |
| 2026-05-03 21:08 | 41.54751 | -109.19119 | 35079 ft | 476 kts | 71° |
| 2026-05-03 21:08 | 41.56789 | -109.10690 | 35092 ft | 478 kts | 71° |
| 2026-05-03 21:09 | 41.58714 | -109.02157 | 35077 ft | 482 kts | 78° |
| 2026-05-03 21:09 | 41.59181 | -108.93395 | 35093 ft | 484 kts | 90° |
| 2026-05-03 21:10 | 41.59127 | -108.84351 | 35042 ft | 487 kts | 90° |
| 2026-05-03 21:10 | 41.59080 | -108.75269 | 34993 ft | 490 kts | 90° |
| 2026-05-03 21:11 | 41.59070 | -108.66137 | 34917 ft | 491 kts | 90° |
| 2026-05-03 21:11 | 41.59073 | -108.57002 | 34908 ft | 492 kts | 90° |
| 2026-05-03 21:12 | 41.59073 | -108.47906 | 34913 ft | 492 kts | 90° |
| 2026-05-03 21:12 | 41.59063 | -108.38774 | 34912 ft | 491 kts | 90° |
| 2026-05-03 21:13 | 41.59045 | -108.29640 | 34906 ft | 490 kts | 90° |
| 2026-05-03 21:13 | 41.59019 | -108.20536 | 34909 ft | 489 kts | 90° |
| 2026-05-03 21:14 | 41.58987 | -108.11463 | 34906 ft | 488 kts | 90° |
| 2026-05-03 21:14 | 41.58947 | -108.02398 | 34910 ft | 487 kts | 90° |
| 2026-05-03 21:15 | 41.58901 | -107.93554 | 34899 ft | 486 kts | 90° |
| 2026-05-03 21:15 | 41.58847 | -107.84526 | 34913 ft | 486 kts | 90° |
| 2026-05-03 21:16 | 41.58787 | -107.75492 | 34908 ft | 486 kts | 90° |
| 2026-05-03 21:16 | 41.58718 | -107.66441 | 34912 ft | 487 kts | 90° |
| 2026-05-03 21:17 | 41.58656 | -107.58896 | 34917 ft | 487 kts | 90° |
| 2026-05-03 21:17 | 41.58562 | -107.48365 | 34949 ft | 488 kts | 90° |
| 2026-05-03 21:18 | 41.58472 | -107.39277 | 34978 ft | 489 kts | 90° |
| 2026-05-03 21:18 | 41.58375 | -107.30222 | 34988 ft | 490 kts | 90° |
| 2026-05-03 21:19 | 41.58271 | -107.21094 | 34994 ft | 491 kts | 90° |
| 2026-05-03 21:19 | 41.58160 | -107.11960 | 34988 ft | 492 kts | 91° |
| 2026-05-03 21:20 | 41.58040 | -107.02817 | 34983 ft | 492 kts | 91° |
| 2026-05-03 21:20 | 41.57916 | -106.93814 | 34953 ft | 493 kts | 91° |
| 2026-05-03 21:21 | 41.57782 | -106.84633 | 34901 ft | 494 kts | 91° |
| 2026-05-03 21:21 | 41.57641 | -106.75497 | 34908 ft | 495 kts | 91° |
| 2026-05-03 21:22 | 41.57493 | -106.66293 | 34903 ft | 496 kts | 91° |
| 2026-05-03 21:22 | 41.57336 | -106.57076 | 34896 ft | 496 kts | 91° |
| 2026-05-03 21:23 | 41.57172 | -106.47849 | 34910 ft | 497 kts | 91° |
| 2026-05-03 21:23 | 41.57000 | -106.38614 | 34910 ft | 497 kts | 91° |
| 2026-05-03 21:24 | 41.56821 | -106.29378 | 34899 ft | 498 kts | 91° |
| 2026-05-03 21:24 | 41.56635 | -106.20129 | 34889 ft | 498 kts | 91° |
| 2026-05-03 21:25 | 41.56441 | -106.10883 | 34883 ft | 498 kts | 91° |
| 2026-05-03 21:25 | 41.56240 | -106.01682 | 34881 ft | 498 kts | 91° |
| 2026-05-03 21:26 | 41.56037 | -105.92666 | 34881 ft | 499 kts | 91° |
| 2026-05-03 21:26 | 41.55820 | -105.83395 | 34879 ft | 499 kts | 91° |
| 2026-05-03 21:27 | 41.55596 | -105.74124 | 34873 ft | 500 kts | 91° |
| 2026-05-03 21:27 | 41.55365 | -105.64866 | 34872 ft | 501 kts | 91° |
| 2026-05-03 21:28 | 41.55124 | -105.55549 | 34889 ft | 502 kts | 91° |
| 2026-05-03 21:28 | 41.54877 | -105.46227 | 34882 ft | 503 kts | 91° |
| 2026-05-03 21:29 | 41.54620 | -105.36873 | 34890 ft | 503 kts | 92° |
| 2026-05-03 21:29 | 41.54359 | -105.27605 | 34911 ft | 503 kts | 91° |
| 2026-05-03 21:30 | 41.54088 | -105.18269 | 34906 ft | 503 kts | 91° |
| 2026-05-03 21:30 | 41.53809 | -105.08925 | 34899 ft | 504 kts | 91° |
| 2026-05-03 21:31 | 41.53527 | -104.99710 | 34905 ft | 504 kts | 91° |
| 2026-05-03 21:31 | 41.53232 | -104.90359 | 34914 ft | 505 kts | 91° |
| 2026-05-03 21:32 | 41.52930 | -104.80993 | 34905 ft | 505 kts | 91° |
| 2026-05-03 21:32 | 41.52673 | -104.73203 | 34911 ft | 505 kts | 91° |
| 2026-05-03 21:33 | 41.52356 | -104.63820 | 34905 ft | 506 kts | 92° |
| 2026-05-03 21:33 | 41.52031 | -104.54420 | 34902 ft | 506 kts | 92° |
| 2026-05-03 21:34 | 41.51701 | -104.45077 | 34902 ft | 507 kts | 92° |
| 2026-05-03 21:34 | 41.51360 | -104.35658 | 34882 ft | 507 kts | 92° |
| 2026-05-03 21:35 | 41.51011 | -104.26243 | 34871 ft | 507 kts | 92° |
| 2026-05-03 21:35 | 41.50656 | -104.16861 | 34891 ft | 506 kts | 92° |
| 2026-05-03 21:36 | 41.50297 | -104.07526 | 34887 ft | 507 kts | 92° |
| 2026-05-03 21:36 | 41.49976 | -103.98289 | 34902 ft | 506 kts | 89° |
| 2026-05-03 21:37 | 41.50059 | -103.88903 | 34904 ft | 505 kts | 87° |
| 2026-05-03 21:37 | 41.50261 | -103.79512 | 34909 ft | 506 kts | 86° |
| 2026-05-03 21:38 | 41.50425 | -103.70179 | 34896 ft | 507 kts | 87° |
| 2026-05-03 21:38 | 41.50549 | -103.60771 | 34873 ft | 507 kts | 87° |
| 2026-05-03 21:39 | 41.50656 | -103.51358 | 34880 ft | 508 kts | 88° |
| 2026-05-03 21:39 | 41.50756 | -103.41923 | 34878 ft | 508 kts | 87° |
| 2026-05-03 21:40 | 41.50852 | -103.32491 | 34874 ft | 509 kts | 87° |
| 2026-05-03 21:40 | 41.50940 | -103.23034 | 34878 ft | 509 kts | 88° |
| 2026-05-03 21:41 | 41.51020 | -103.13577 | 34867 ft | 510 kts | 88° |
| 2026-05-03 21:41 | 41.51092 | -103.04171 | 34872 ft | 510 kts | 88° |
| 2026-05-03 21:42 | 41.51157 | -102.94877 | 34869 ft | 511 kts | 88° |
| 2026-05-03 21:42 | 41.51206 | -102.85402 | 34868 ft | 511 kts | 88° |
| 2026-05-03 21:43 | 41.51120 | -102.75916 | 34895 ft | 511 kts | 89° |
| 2026-05-03 21:43 | 41.50976 | -102.66409 | 34881 ft | 512 kts | 89° |
| 2026-05-03 21:44 | 41.50836 | -102.56898 | 34897 ft | 512 kts | 89° |
| 2026-05-03 21:44 | 41.50704 | -102.47445 | 34890 ft | 512 kts | 89° |
| 2026-05-03 21:45 | 41.50569 | -102.37953 | 34907 ft | 512 kts | 89° |
| 2026-05-03 21:45 | 41.50427 | -102.28449 | 34904 ft | 512 kts | 89° |
| 2026-05-03 21:46 | 41.50276 | -102.18952 | 34901 ft | 512 kts | 89° |
| 2026-05-03 21:46 | 41.50116 | -102.09454 | 34903 ft | 512 kts | 90° |
| 2026-05-03 21:47 | 41.49949 | -101.99991 | 34914 ft | 513 kts | 90° |
| 2026-05-03 21:47 | 41.49776 | -101.90625 | 34914 ft | 513 kts | 90° |
| 2026-05-03 21:48 | 41.49593 | -101.81089 | 34905 ft | 514 kts | 90° |
| 2026-05-03 21:48 | 41.49401 | -101.71541 | 34904 ft | 515 kts | 90° |
| 2026-05-03 21:49 | 41.49201 | -101.61969 | 34912 ft | 516 kts | 90° |
| 2026-05-03 21:49 | 41.48993 | -101.52445 | 34905 ft | 517 kts | 90° |
| 2026-05-03 21:50 | 41.48776 | -101.42838 | 34906 ft | 518 kts | 90° |
| 2026-05-03 21:50 | 41.48551 | -101.33230 | 34906 ft | 518 kts | 90° |
| 2026-05-03 21:51 | 41.48318 | -101.23613 | 34914 ft | 519 kts | 90° |
| 2026-05-03 21:51 | 41.48077 | -101.13992 | 34910 ft | 519 kts | 90° |
| 2026-05-03 21:52 | 41.47828 | -101.04391 | 34903 ft | 520 kts | 90° |
| 2026-05-03 21:52 | 41.47575 | -100.94929 | 34901 ft | 520 kts | 90° |
| 2026-05-03 21:53 | 41.47309 | -100.85282 | 34888 ft | 520 kts | 90° |
| 2026-05-03 21:53 | 41.47035 | -100.75653 | 34903 ft | 519 kts | 90° |
| 2026-05-03 21:54 | 41.46756 | -100.66101 | 34904 ft | 518 kts | 90° |
| 2026-05-03 21:54 | 41.46467 | -100.56506 | 34931 ft | 517 kts | 90° |
| 2026-05-03 21:55 | 41.46171 | -100.46910 | 34913 ft | 517 kts | 90° |
| 2026-05-03 21:55 | 41.45866 | -100.37314 | 34907 ft | 517 kts | 91° |
| 2026-05-03 21:56 | 41.45554 | -100.27733 | 34903 ft | 517 kts | 91° |
| 2026-05-03 21:56 | 41.45235 | -100.18183 | 34924 ft | 518 kts | 90° |
| 2026-05-03 21:57 | 41.44907 | -100.08588 | 34913 ft | 518 kts | 91° |
| 2026-05-03 21:57 | 41.44576 | -99.99145 | 34920 ft | 519 kts | 91° |
| 2026-05-03 21:58 | 41.44230 | -99.89515 | 34931 ft | 519 kts | 91° |
| 2026-05-03 21:58 | 41.43876 | -99.79878 | 34950 ft | 520 kts | 91° |
| 2026-05-03 21:59 | 41.43514 | -99.70241 | 34951 ft | 521 kts | 91° |
| 2026-05-03 21:59 | 41.43145 | -99.60640 | 34947 ft | 521 kts | 91° |
| 2026-05-03 22:00 | 41.42766 | -99.50977 | 34945 ft | 522 kts | 91° |
| 2026-05-03 22:00 | 41.42379 | -99.41327 | 34943 ft | 523 kts | 91° |
| 2026-05-03 22:01 | 41.41982 | -99.31624 | 34911 ft | 524 kts | 91° |
| 2026-05-03 22:01 | 41.41577 | -99.21931 | 34908 ft | 524 kts | 91° |
| 2026-05-03 22:02 | 41.41165 | -99.12273 | 34879 ft | 525 kts | 91° |
| 2026-05-03 22:02 | 41.40743 | -99.02572 | 34914 ft | 524 kts | 91° |
| 2026-05-03 22:03 | 41.40321 | -98.93034 | 34913 ft | 524 kts | 91° |
| 2026-05-03 22:03 | 41.39885 | -98.83391 | 34914 ft | 524 kts | 91° |
| 2026-05-03 22:04 | 41.39440 | -98.73691 | 34915 ft | 523 kts | 91° |
| 2026-05-03 22:04 | 41.38987 | -98.64015 | 34919 ft | 523 kts | 91° |
| 2026-05-03 22:05 | 41.38525 | -98.54333 | 34918 ft | 523 kts | 91° |
| 2026-05-03 22:05 | 41.38057 | -98.44663 | 34916 ft | 523 kts | 91° |
| 2026-05-03 22:06 | 41.37574 | -98.34985 | 34917 ft | 523 kts | 92° |
| 2026-05-03 22:06 | 41.36809 | -98.25402 | 34921 ft | 525 kts | 95° |
| 2026-05-03 22:07 | 41.35858 | -98.15755 | 34917 ft | 525 kts | 96° |
| 2026-05-03 22:07 | 41.34910 | -98.06120 | 34918 ft | 526 kts | 95° |
| 2026-05-03 22:08 | 41.34006 | -97.96623 | 34935 ft | 526 kts | 95° |
| 2026-05-03 22:08 | 41.33094 | -97.86960 | 34925 ft | 526 kts | 95° |
| 2026-05-03 22:09 | 41.32174 | -97.77274 | 34923 ft | 527 kts | 95° |
| 2026-05-03 22:10 | 41.30781 | -97.62831 | 34889 ft | 527 kts | 95° |
| 2026-05-03 22:10 | 41.29837 | -97.53160 | 34925 ft | 527 kts | 95° |
| 2026-05-03 22:11 | 41.28884 | -97.43489 | 34912 ft | 527 kts | 95° |
| 2026-05-03 22:11 | 41.27923 | -97.33809 | 34908 ft | 527 kts | 95° |
| 2026-05-03 22:12 | 41.26953 | -97.24132 | 34914 ft | 527 kts | 95° |
| 2026-05-03 22:12 | 41.25976 | -97.14464 | 34914 ft | 527 kts | 95° |
| 2026-05-03 22:13 | 41.24997 | -97.04862 | 34916 ft | 527 kts | 96° |
| 2026-05-03 22:13 | 41.24023 | -96.95390 | 34905 ft | 527 kts | 96° |
| 2026-05-03 22:14 | 41.23021 | -96.85719 | 34904 ft | 527 kts | 96° |
| 2026-05-03 22:14 | 41.22013 | -96.76074 | 34907 ft | 527 kts | 96° |
| 2026-05-03 22:15 | 41.20997 | -96.66432 | 34901 ft | 527 kts | 96° |
| 2026-05-03 22:15 | 41.19976 | -96.56829 | 34899 ft | 527 kts | 96° |
| 2026-05-03 22:16 | 41.18943 | -96.47183 | 34897 ft | 527 kts | 96° |
| 2026-05-03 22:16 | 41.17901 | -96.37530 | 34895 ft | 528 kts | 96° |
| 2026-05-03 22:17 | 41.16850 | -96.27878 | 34885 ft | 528 kts | 96° |
| 2026-05-03 22:17 | 41.15971 | -96.19859 | 34884 ft | 528 kts | 96° |
| 2026-05-03 22:18 | 41.14732 | -96.08650 | 34910 ft | 528 kts | 96° |
| 2026-05-03 22:18 | 41.13831 | -96.00560 | 34886 ft | 529 kts | 96° |
| 2026-05-03 22:19 | 41.12774 | -95.91137 | 34881 ft | 529 kts | 96° |
| 2026-05-03 22:19 | 41.11682 | -95.81479 | 34877 ft | 529 kts | 96° |
| 2026-05-03 22:20 | 41.10582 | -95.71827 | 34884 ft | 529 kts | 96° |
| 2026-05-03 22:20 | 41.09473 | -95.62163 | 34896 ft | 530 kts | 96° |
| 2026-05-03 22:21 | 41.08355 | -95.52497 | 34895 ft | 530 kts | 96° |
| 2026-05-03 22:21 | 41.07229 | -95.42835 | 34889 ft | 530 kts | 96° |
| 2026-05-03 22:22 | 41.06102 | -95.33237 | 34895 ft | 530 kts | 96° |
| 2026-05-03 22:22 | 41.04960 | -95.23582 | 34887 ft | 530 kts | 96° |
| 2026-05-03 22:23 | 41.03811 | -95.13939 | 34892 ft | 530 kts | 96° |
| 2026-05-03 22:23 | 41.02654 | -95.04304 | 34881 ft | 530 kts | 96° |
| 2026-05-03 22:24 | 41.01513 | -94.94861 | 34903 ft | 529 kts | 96° |
| 2026-05-03 22:24 | 41.00342 | -94.85243 | 34890 ft | 529 kts | 96° |
| 2026-05-03 22:25 | 40.99169 | -94.75683 | 34895 ft | 529 kts | 96° |
| 2026-05-03 22:25 | 40.97980 | -94.66050 | 34888 ft | 529 kts | 96° |
| 2026-05-03 22:26 | 40.96786 | -94.56452 | 34914 ft | 528 kts | 96° |
| 2026-05-03 22:26 | 40.95583 | -94.46852 | 34895 ft | 529 kts | 96° |
| 2026-05-03 22:27 | 40.94379 | -94.37305 | 34891 ft | 529 kts | 96° |
| 2026-05-03 22:27 | 40.93159 | -94.27704 | 34888 ft | 529 kts | 96° |
| 2026-05-03 22:28 | 40.91932 | -94.18103 | 34905 ft | 529 kts | 96° |
| 2026-05-03 22:28 | 40.90697 | -94.08512 | 34895 ft | 529 kts | 96° |
| 2026-05-03 22:29 | 40.89477 | -93.99102 | 34884 ft | 529 kts | 96° |
| 2026-05-03 22:29 | 40.88225 | -93.89509 | 34887 ft | 529 kts | 97° |
| 2026-05-03 22:30 | 40.86975 | -93.79987 | 34899 ft | 529 kts | 97° |
| 2026-05-03 22:30 | 40.85707 | -93.70398 | 34885 ft | 530 kts | 97° |
| 2026-05-03 22:31 | 40.84433 | -93.60812 | 34863 ft | 529 kts | 96° |
| 2026-05-03 22:31 | 40.84078 | -93.51272 | 34904 ft | 513 kts | 76° |
| 2026-05-03 22:32 | 40.85045 | -93.41903 | 34870 ft | 515 kts | 76° |
| 2026-05-03 22:32 | 40.85976 | -93.32571 | 34876 ft | 517 kts | 76° |
| 2026-05-03 22:33 | 40.86846 | -93.23104 | 34886 ft | 519 kts | 77° |
| 2026-05-03 22:33 | 40.87681 | -93.13612 | 34876 ft | 520 kts | 77° |
| 2026-05-03 22:34 | 40.88507 | -93.04096 | 34882 ft | 522 kts | 77° |
| 2026-05-03 22:34 | 40.89315 | -92.94737 | 34872 ft | 522 kts | 77° |
| 2026-05-03 22:35 | 40.90134 | -92.85201 | 34872 ft | 522 kts | 77° |
| 2026-05-03 22:35 | 40.90940 | -92.75715 | 34862 ft | 522 kts | 77° |
| 2026-05-03 22:36 | 40.91742 | -92.66190 | 34884 ft | 521 kts | 77° |
| 2026-05-03 22:36 | 40.92537 | -92.56653 | 34858 ft | 521 kts | 77° |
| 2026-05-03 22:37 | 40.93322 | -92.47130 | 34853 ft | 520 kts | 77° |
| 2026-05-03 22:37 | 40.94098 | -92.37626 | 34849 ft | 519 kts | 77° |
| 2026-05-03 22:38 | 40.94865 | -92.28132 | 34869 ft | 519 kts | 77° |
| 2026-05-03 22:38 | 40.95624 | -92.18646 | 34870 ft | 518 kts | 77° |
| 2026-05-03 22:39 | 40.96375 | -92.09155 | 34862 ft | 518 kts | 77° |
| 2026-05-03 22:39 | 40.97107 | -91.99805 | 34865 ft | 517 kts | 78° |
| 2026-05-03 22:40 | 40.97836 | -91.90403 | 34901 ft | 517 kts | 78° |
| 2026-05-03 22:40 | 40.98558 | -91.80988 | 34861 ft | 518 kts | 78° |
| 2026-05-03 22:41 | 40.99278 | -91.71495 | 34855 ft | 518 kts | 78° |
| 2026-05-03 22:41 | 40.99991 | -91.61985 | 34856 ft | 518 kts | 78° |
| 2026-05-03 22:42 | 41.00694 | -91.52492 | 34872 ft | 518 kts | 78° |
| 2026-05-03 22:42 | 41.01388 | -91.43040 | 34857 ft | 518 kts | 78° |
| 2026-05-03 22:43 | 41.02076 | -91.33536 | 34855 ft | 518 kts | 78° |
| 2026-05-03 22:43 | 41.02738 | -91.24190 | 34829 ft | 496 kts | 78° |
| 2026-05-03 22:43 | 41.03050 | -91.19700 | 34834 ft | 482 kts | 78° |
| 2026-05-03 22:44 | 41.03355 | -91.15333 | 34831 ft | 469 kts | 77° |
| 2026-05-03 22:44 | 41.03652 | -91.11079 | 34841 ft | 457 kts | 77° |
| 2026-05-03 22:44 | 41.03941 | -91.06945 | 34829 ft | 446 kts | 77° |
| 2026-05-03 22:45 | 41.04514 | -90.98900 | 34873 ft | 454 kts | 77° |
| 2026-05-03 22:45 | 41.05108 | -90.90420 | 34869 ft | 467 kts | 78° |
| 2026-05-03 22:46 | 41.05693 | -90.81767 | 34859 ft | 473 kts | 78° |
| 2026-05-03 22:46 | 41.06201 | -90.74139 | 34869 ft | 468 kts | 78° |
| 2026-05-03 22:47 | 41.06549 | -90.69008 | 34135 ft | 470 kts | 77° |
| 2026-05-03 22:47 | 41.06888 | -90.64707 | 33381 ft | 469 kts | 76° |
| 2026-05-03 22:48 | 41.07247 | -90.60403 | 32589 ft | 470 kts | 77° |
| 2026-05-03 22:48 | 41.07606 | -90.56092 | 31806 ft | 470 kts | 77° |
| 2026-05-03 22:48 | 41.07957 | -90.51776 | 31058 ft | 471 kts | 77° |
| 2026-05-03 22:48 | 41.08301 | -90.47465 | 30312 ft | 470 kts | 78° |
| 2026-05-03 22:49 | 41.08641 | -90.43150 | 29533 ft | 470 kts | 78° |
| 2026-05-03 22:49 | 41.08982 | -90.38841 | 28688 ft | 468 kts | 78° |
| 2026-05-03 22:49 | 41.09322 | -90.34550 | 27901 ft | 466 kts | 78° |
| 2026-05-03 22:49 | 41.09659 | -90.30291 | 27109 ft | 464 kts | 78° |
| 2026-05-03 22:50 | 41.09993 | -90.26046 | 26329 ft | 462 kts | 79° |
| 2026-05-03 22:50 | 41.10320 | -90.21882 | 25656 ft | 457 kts | 79° |
| 2026-05-03 22:50 | 41.10645 | -90.17706 | 25034 ft | 452 kts | 79° |
| 2026-05-03 22:50 | 41.10966 | -90.13572 | 24425 ft | 449 kts | 79° |
| 2026-05-03 22:51 | 41.11287 | -90.09435 | 23839 ft | 449 kts | 79° |
| 2026-05-03 22:51 | 41.11605 | -90.05313 | 23234 ft | 449 kts | 79° |
| 2026-05-03 22:51 | 41.11906 | -90.01208 | 22545 ft | 445 kts | 80° |
| 2026-05-03 22:51 | 41.12174 | -89.97303 | 21915 ft | 440 kts | 81° |
| 2026-05-03 22:52 | 41.12443 | -89.93276 | 21261 ft | 436 kts | 81° |
| 2026-05-03 22:52 | 41.12711 | -89.89277 | 20625 ft | 433 kts | 81° |
| 2026-05-03 22:52 | 41.12975 | -89.85356 | 20099 ft | 432 kts | 81° |
| 2026-05-03 22:52 | 41.13243 | -89.81394 | 19608 ft | 430 kts | 81° |
| 2026-05-03 22:53 | 41.13510 | -89.77445 | 19076 ft | 429 kts | 81° |
| 2026-05-03 22:53 | 41.13773 | -89.73513 | 18577 ft | 424 kts | 81° |
| 2026-05-03 22:53 | 41.14027 | -89.69650 | 18091 ft | 417 kts | 81° |
| 2026-05-03 22:53 | 41.14272 | -89.65848 | 17548 ft | 410 kts | 81° |
| 2026-05-03 22:54 | 41.14512 | -89.62106 | 17013 ft | 404 kts | 82° |
| 2026-05-03 22:54 | 41.14747 | -89.58415 | 16483 ft | 398 kts | 81° |
| 2026-05-03 22:54 | 41.14981 | -89.54763 | 15963 ft | 395 kts | 81° |
| 2026-05-03 22:54 | 41.15210 | -89.51159 | 15543 ft | 387 kts | 81° |
| 2026-05-03 22:55 | 41.15434 | -89.47628 | 15166 ft | 380 kts | 82° |
| 2026-05-03 22:55 | 41.15647 | -89.44235 | 15033 ft | 370 kts | 81° |
| 2026-05-03 22:55 | 41.15861 | -89.40836 | 14615 ft | 370 kts | 81° |
| 2026-05-03 22:55 | 41.16084 | -89.37437 | 14227 ft | 368 kts | 81° |
| 2026-05-03 22:56 | 41.16306 | -89.34090 | 13829 ft | 362 kts | 81° |
| 2026-05-03 22:56 | 41.16525 | -89.30785 | 13387 ft | 356 kts | 81° |
| 2026-05-03 22:56 | 41.16739 | -89.27529 | 12933 ft | 353 kts | 81° |
| 2026-05-03 22:56 | 41.16954 | -89.24271 | 12490 ft | 355 kts | 82° |
| 2026-05-03 22:57 | 41.17166 | -89.21031 | 12192 ft | 351 kts | 82° |
| 2026-05-03 22:57 | 41.17373 | -89.17821 | 11889 ft | 347 kts | 82° |
| 2026-05-03 22:57 | 41.17577 | -89.14640 | 11606 ft | 343 kts | 82° |
| 2026-05-03 22:57 | 41.17849 | -89.11519 | 11317 ft | 337 kts | 74° |
| 2026-05-03 22:58 | 41.18467 | -89.08592 | 11062 ft | 330 kts | 68° |
| 2026-05-03 22:58 | 41.19192 | -89.05716 | 10810 ft | 326 kts | 68° |
| 2026-05-03 22:58 | 41.19892 | -89.02860 | 10555 ft | 324 kts | 69° |
| 2026-05-03 22:58 | 41.20558 | -89.00011 | 10296 ft | 322 kts | 70° |
| 2026-05-03 22:59 | 41.21182 | -88.97285 | 10052 ft | 318 kts | 69° |
| 2026-05-03 22:59 | 41.21954 | -88.94572 | 9872 ft | 310 kts | 61° |
| 2026-05-03 22:59 | 41.22878 | -88.92015 | 9704 ft | 305 kts | 60° |
| 2026-05-03 22:59 | 41.23820 | -88.89493 | 9526 ft | 304 kts | 59° |
| 2026-05-03 23:00 | 41.24743 | -88.86971 | 9351 ft | 300 kts | 61° |
| 2026-05-03 23:00 | 41.25639 | -88.84473 | 9176 ft | 298 kts | 60° |
| 2026-05-03 23:00 | 41.26524 | -88.81978 | 9023 ft | 299 kts | 62° |
| 2026-05-03 23:00 | 41.27408 | -88.79473 | 8852 ft | 299 kts | 62° |
| 2026-05-03 23:01 | 41.28290 | -88.76961 | 8708 ft | 300 kts | 62° |
| 2026-05-03 23:01 | 41.29163 | -88.74473 | 8543 ft | 301 kts | 62° |
| 2026-05-03 23:01 | 41.30055 | -88.71938 | 8378 ft | 304 kts | 62° |
| 2026-05-03 23:01 | 41.30938 | -88.69424 | 8217 ft | 305 kts | 62° |
| 2026-05-03 23:02 | 41.31836 | -88.66855 | 8047 ft | 307 kts | 62° |
| 2026-05-03 23:02 | 41.32737 | -88.64279 | 7885 ft | 307 kts | 62° |
| 2026-05-03 23:02 | 41.33635 | -88.61706 | 7707 ft | 306 kts | 62° |
| 2026-05-03 23:02 | 41.34526 | -88.59153 | 7539 ft | 300 kts | 62° |
| 2026-05-03 23:03 | 41.35400 | -88.56649 | 7385 ft | 296 kts | 61° |
| 2026-05-03 23:03 | 41.36267 | -88.54170 | 7216 ft | 294 kts | 61° |
| 2026-05-03 23:03 | 41.37116 | -88.51737 | 7063 ft | 293 kts | 61° |
| 2026-05-03 23:03 | 41.38143 | -88.49421 | 6957 ft | 288 kts | 49° |
| 2026-05-03 23:04 | 41.39390 | -88.47355 | 6866 ft | 286 kts | 45° |
| 2026-05-03 23:04 | 41.40696 | -88.45313 | 6767 ft | 293 kts | 46° |
| 2026-05-03 23:04 | 41.42027 | -88.43211 | 6679 ft | 299 kts | 47° |
| 2026-05-03 23:04 | 41.43356 | -88.41077 | 6575 ft | 299 kts | 47° |
| 2026-05-03 23:05 | 41.44232 | -88.39656 | 6500 ft | 298 kts | 47° |
| 2026-05-03 23:05 | 41.45540 | -88.37518 | 6408 ft | 297 kts | 48° |
| 2026-05-03 23:05 | 41.46839 | -88.35384 | 6305 ft | 296 kts | 48° |
| 2026-05-03 23:05 | 41.48134 | -88.33251 | 6202 ft | 295 kts | 48° |
| 2026-05-03 23:06 | 41.49427 | -88.31116 | 6071 ft | 296 kts | 48° |
| 2026-05-03 23:06 | 41.50723 | -88.28971 | 6017 ft | 296 kts | 50° |
| 2026-05-03 23:06 | 41.51858 | -88.26754 | 6005 ft | 296 kts | 56° |
| 2026-05-03 23:06 | 41.52920 | -88.24393 | 6003 ft | 297 kts | 57° |
| 2026-05-03 23:07 | 41.53978 | -88.22016 | 6009 ft | 297 kts | 57° |
| 2026-05-03 23:07 | 41.55045 | -88.19661 | 6017 ft | 297 kts | 57° |
| 2026-05-03 23:07 | 41.56124 | -88.17308 | 6007 ft | 297 kts | 57° |
| 2026-05-03 23:07 | 41.57037 | -88.15329 | 5997 ft | 297 kts | 57° |
| 2026-05-03 23:08 | 41.58110 | -88.13006 | 5994 ft | 297 kts | 57° |
| 2026-05-03 23:08 | 41.59198 | -88.10651 | 5868 ft | 299 kts | 57° |
| 2026-05-03 23:08 | 41.60297 | -88.08273 | 5741 ft | 300 kts | 57° |
| 2026-05-03 23:08 | 41.61391 | -88.05905 | 5621 ft | 300 kts | 57° |
| 2026-05-03 23:09 | 41.62486 | -88.03528 | 5510 ft | 300 kts | 57° |
| 2026-05-03 23:09 | 41.63572 | -88.01172 | 5397 ft | 301 kts | 57° |
| 2026-05-03 23:09 | 41.64630 | -87.98875 | 5284 ft | 301 kts | 57° |
| 2026-05-03 23:09 | 41.65715 | -87.96515 | 5159 ft | 295 kts | 57° |
| 2026-05-03 23:10 | 41.66779 | -87.94199 | 5042 ft | 290 kts | 57° |
| 2026-05-03 23:10 | 41.67831 | -87.91908 | 4921 ft | 288 kts | 57° |
| 2026-05-03 23:10 | 41.68878 | -87.89627 | 4813 ft | 287 kts | 57° |
| 2026-05-03 23:10 | 41.69923 | -87.87348 | 4696 ft | 288 kts | 57° |
| 2026-05-03 23:11 | 41.70971 | -87.85061 | 4579 ft | 288 kts | 57° |
| 2026-05-03 23:11 | 41.72021 | -87.82769 | 4472 ft | 288 kts | 57° |
| 2026-05-03 23:11 | 41.73064 | -87.80489 | 4350 ft | 288 kts | 57° |
| 2026-05-03 23:11 | 41.74100 | -87.78224 | 4250 ft | 289 kts | 57° |
| 2026-05-03 23:12 | 41.75134 | -87.75904 | 4131 ft | 290 kts | 64° |
| 2026-05-03 23:12 | 41.75601 | -87.73326 | 4032 ft | 288 kts | 89° |
| 2026-05-03 23:12 | 41.75687 | -87.70679 | 3919 ft | 286 kts | 90° |
| 2026-05-03 23:12 | 41.75795 | -87.68071 | 3824 ft | 276 kts | 90° |
| 2026-05-03 23:13 | 41.75907 | -87.65519 | 3698 ft | 273 kts | 90° |
| 2026-05-03 23:13 | 41.76022 | -87.62979 | 3579 ft | 273 kts | 90° |
| 2026-05-03 23:13 | 41.76151 | -87.60434 | 3488 ft | 273 kts | 89° |
| 2026-05-03 23:13 | 41.76286 | -87.57904 | 3376 ft | 271 kts | 89° |
| 2026-05-03 23:14 | 41.76677 | -87.55482 | 3224 ft | 265 kts | 62° |
| 2026-05-03 23:14 | 41.77868 | -87.53713 | 3115 ft | 254 kts | 28° |
| 2026-05-03 23:14 | 41.79475 | -87.52905 | 3035 ft | 244 kts | 1° |
| 2026-05-03 23:14 | 41.81123 | -87.52948 | 2996 ft | 231 kts | 339° |
| 2026-05-03 23:15 | 41.82593 | -87.53587 | 2996 ft | 213 kts | 331° |
| 2026-05-03 23:15 | 41.83889 | -87.54350 | 2961 ft | 191 kts | 315° |
| 2026-05-03 23:15 | 41.84635 | -87.55609 | 3006 ft | 170 kts | 285° |
| 2026-05-03 23:15 | 41.84899 | -87.57111 | 2975 ft | 161 kts | 262° |
| 2026-05-03 23:16 | 41.84824 | -87.58612 | 2979 ft | 163 kts | 262° |
| 2026-05-03 23:16 | 41.84762 | -87.60129 | 2994 ft | 164 kts | 263° |
| 2026-05-03 23:16 | 41.84697 | -87.61681 | 2817 ft | 169 kts | 262° |
| 2026-05-03 23:16 | 41.84625 | -87.63224 | 2613 ft | 162 kts | 262° |
| 2026-05-03 23:17 | 41.84547 | -87.64703 | 2376 ft | 154 kts | 255° |
| 2026-05-03 23:17 | 41.84161 | -87.65973 | 2175 ft | 142 kts | 243° |
| 2026-05-03 23:17 | 41.83765 | -87.67191 | 2010 ft | 142 kts | 244° |
| 2026-05-03 23:17 | 41.83360 | -87.68412 | 1826 ft | 144 kts | 240° |
| 2026-05-03 23:18 | 41.82843 | -87.69541 | 1650 ft | 141 kts | 231° |
| 2026-05-03 23:18 | 41.82204 | -87.70482 | 1461 ft | 134 kts | 223° |
| 2026-05-03 23:18 | 41.81521 | -87.71355 | 1275 ft | 137 kts | 222° |
| 2026-05-03 23:18 | 41.80824 | -87.72245 | 1101 ft | 140 kts | 222° |
| 2026-05-03 23:19 | 41.80147 | -87.73112 | 931 ft | 131 kts | 221° |
| 2026-05-03 23:19 | 41.79502 | -87.73934 | 755 ft | 127 kts | 221° |
| 2026-05-03 23:19 | 41.78866 | -87.74740 | 628 ft | 122 kts | 220° |
| 2026-05-03 23:19 | 41.78401 | -87.75320 | 619 ft | 45 kts | 223° |
| 2026-05-03 23:20 | 41.78218 | -87.75502 | 622 ft | 19 kts | 159° |
| 2026-05-03 23:20 | 41.78194 | -87.75406 | 620 ft | 0 kts | 85° |
| 2026-05-03 23:21 | 41.78194 | -87.75399 | 620 ft | 2 kts | 84° |
| 2026-05-03 23:21 | 41.78205 | -87.75369 | 626 ft | 6 kts | 54° |
| 2026-05-03 23:21 | 41.78249 | -87.75310 | 625 ft | 12 kts | 43° |
| 2026-05-03 23:21 | 41.78321 | -87.75218 | 625 ft | 14 kts | 43° |
| 2026-05-03 23:22 | 41.78470 | -87.75030 | 619 ft | 15 kts | 43° |
| 2026-05-03 23:22 | 41.78546 | -87.74934 | 614 ft | 15 kts | 43° |
| 2026-05-03 23:22 | 41.78610 | -87.74851 | 624 ft | 8 kts | 52° |
| 2026-05-03 23:23 | 41.78606 | -87.74785 | 622 ft | 8 kts | 126° |
| 2026-05-03 23:23 | 41.78571 | -87.74733 | 617 ft | 7 kts | 134° |
| 2026-05-03 23:23 | 41.78535 | -87.74683 | 626 ft | 7 kts | 134° |
| 2026-05-03 23:23 | 41.78500 | -87.74634 | 617 ft | 8 kts | 126° |
| 2026-05-03 23:24 | 41.78519 | -87.74573 | 622 ft | 8 kts | 44° |
| 2026-05-03 23:24 | 41.78559 | -87.74523 | 627 ft | 8 kts | 43° |
| 2026-05-03 23:24 | 41.78597 | -87.74474 | 621 ft | 7 kts | 43° |
| 2026-05-03 23:24 | 41.78634 | -87.74427 | 624 ft | 7 kts | 43° |
| 2026-05-03 23:25 | 41.78672 | -87.74404 | 621 ft | 4 kts | 335° |
| 2026-05-03 23:25 | 41.78688 | -87.74424 | 618 ft | 0 kts | 307° |
| 2026-05-03 23:25 | 41.78694 | -87.74435 | 622 ft | 2 kts | 307° |
| 2026-05-03 23:25 | 41.78694 | -87.74436 | 622 ft | 0 kts | 307° |